sensor_id;sensor_type;location;lat;lon;timestamp;temperature;humidity
71563;DHT22;59391;52.504;13.438;2023-09-18T00:02:21;23.30;55.20
71563;DHT22;59391;52.504;13.438;2023-09-18T00:04:46;23.30;55.30
71563;DHT22;59391;52.504;13.438;2023-09-18T00:07:13;23.20;55.40
71563;DHT22;59391;52.504;13.438;2023-09-18T00:09:39;23.20;55.40
71563;DHT22;59391;52.504;13.438;2023-09-18T00:12:05;23.20;55.40
71563;DHT22;59391;52.504;13.438;2023-09-18T00:14:32;23.20;55.50
71563;DHT22;59391;52.504;13.438;2023-09-18T00:16:57;23.20;55.50
71563;DHT22;59391;52.504;13.438;2023-09-18T00:19:23;23.10;55.70
71563;DHT22;59391;52.504;13.438;2023-09-18T00:21:50;23.10;55.60
71563;DHT22;59391;52.504;13.438;2023-09-18T00:24:17;23.10;55.60
71563;DHT22;59391;52.504;13.438;2023-09-18T00:26:42;23.00;55.60
71563;DHT22;59391;52.504;13.438;2023-09-18T00:29:08;23.00;55.80
71563;DHT22;59391;52.504;13.438;2023-09-18T00:31:34;23.00;55.90
71563;DHT22;59391;52.504;13.438;2023-09-18T00:33:59;23.00;55.90
71563;DHT22;59391;52.504;13.438;2023-09-18T00:36:25;22.90;56.00
71563;DHT22;59391;52.504;13.438;2023-09-18T00:38:50;22.90;56.10
71563;DHT22;59391;52.504;13.438;2023-09-18T00:41:16;22.90;56.20
71563;DHT22;59391;52.504;13.438;2023-09-18T00:43:42;22.90;56.20
71563;DHT22;59391;52.504;13.438;2023-09-18T00:46:07;22.90;56.20
71563;DHT22;59391;52.504;13.438;2023-09-18T00:48:33;22.90;56.20
71563;DHT22;59391;52.504;13.438;2023-09-18T00:50:59;22.80;56.30
71563;DHT22;59391;52.504;13.438;2023-09-18T00:53:26;22.80;56.40
71563;DHT22;59391;52.504;13.438;2023-09-18T00:55:55;22.80;56.40
71563;DHT22;59391;52.504;13.438;2023-09-18T00:58:23;22.80;56.50
71563;DHT22;59391;52.504;13.438;2023-09-18T01:00:50;22.80;56.50
71563;DHT22;59391;52.504;13.438;2023-09-18T01:03:16;22.70;56.60
71563;DHT22;59391;52.504;13.438;2023-09-18T01:05:44;22.70;56.70
71563;DHT22;59391;52.504;13.438;2023-09-18T01:08:10;22.70;56.60
71563;DHT22;59391;52.504;13.438;2023-09-18T01:10:53;22.60;56.70
71563;DHT22;59391;52.504;13.438;2023-09-18T01:13:38;22.60;56.90
71563;DHT22;59391;52.504;13.438;2023-09-18T01:16:17;22.60;57.00
71563;DHT22;59391;52.504;13.438;2023-09-18T01:18:51;22.60;57.10
71563;DHT22;59391;52.504;13.438;2023-09-18T01:21:19;22.60;57.10
71563;DHT22;59391;52.504;13.438;2023-09-18T01:23:46;22.50;57.10
71563;DHT22;59391;52.504;13.438;2023-09-18T01:26:12;22.50;57.20
71563;DHT22;59391;52.504;13.438;2023-09-18T01:28:37;22.50;57.30
71563;DHT22;59391;52.504;13.438;2023-09-18T01:31:03;22.50;57.30
71563;DHT22;59391;52.504;13.438;2023-09-18T01:33:29;22.40;57.30
71563;DHT22;59391;52.504;13.438;2023-09-18T01:35:57;22.40;57.30
71563;DHT22;59391;52.504;13.438;2023-09-18T01:38:24;22.40;57.40
71563;DHT22;59391;52.504;13.438;2023-09-18T01:40:53;22.40;57.30
71563;DHT22;59391;52.504;13.438;2023-09-18T01:43:19;22.40;57.40
71563;DHT22;59391;52.504;13.438;2023-09-18T01:45:46;22.40;57.40
71563;DHT22;59391;52.504;13.438;2023-09-18T01:48:13;22.30;57.60
71563;DHT22;59391;52.504;13.438;2023-09-18T01:50:39;22.30;57.60
71563;DHT22;59391;52.504;13.438;2023-09-18T01:53:06;22.30;57.70
71563;DHT22;59391;52.504;13.438;2023-09-18T01:55:31;22.30;57.70
71563;DHT22;59391;52.504;13.438;2023-09-18T01:57:58;22.30;57.70
71563;DHT22;59391;52.504;13.438;2023-09-18T02:00:25;22.30;57.70
71563;DHT22;59391;52.504;13.438;2023-09-18T02:02:50;22.30;57.70
71563;DHT22;59391;52.504;13.438;2023-09-18T02:05:16;22.20;57.70
71563;DHT22;59391;52.504;13.438;2023-09-18T02:07:42;22.20;57.70
71563;DHT22;59391;52.504;13.438;2023-09-18T02:10:07;22.20;57.80
71563;DHT22;59391;52.504;13.438;2023-09-18T02:12:33;22.20;57.80
71563;DHT22;59391;52.504;13.438;2023-09-18T02:14:59;22.20;57.80
71563;DHT22;59391;52.504;13.438;2023-09-18T02:17:26;22.10;57.90
71563;DHT22;59391;52.504;13.438;2023-09-18T02:19:52;22.10;58.00
71563;DHT22;59391;52.504;13.438;2023-09-18T02:22:17;22.10;57.90
71563;DHT22;59391;52.504;13.438;2023-09-18T02:24:43;22.10;58.00
71563;DHT22;59391;52.504;13.438;2023-09-18T02:27:08;22.10;58.10
71563;DHT22;59391;52.504;13.438;2023-09-18T02:29:35;22.10;58.10
71563;DHT22;59391;52.504;13.438;2023-09-18T02:32:01;22.00;58.20
71563;DHT22;59391;52.504;13.438;2023-09-18T02:34:27;22.00;58.30
71563;DHT22;59391;52.504;13.438;2023-09-18T02:36:53;22.00;58.40
71563;DHT22;59391;52.504;13.438;2023-09-18T02:39:19;22.00;58.40
71563;DHT22;59391;52.504;13.438;2023-09-18T02:41:44;22.00;58.40
71563;DHT22;59391;52.504;13.438;2023-09-18T02:44:10;22.00;58.30
71563;DHT22;59391;52.504;13.438;2023-09-18T02:46:37;21.90;58.40
71563;DHT22;59391;52.504;13.438;2023-09-18T02:49:03;21.90;58.40
71563;DHT22;59391;52.504;13.438;2023-09-18T02:51:29;21.90;58.40
71563;DHT22;59391;52.504;13.438;2023-09-18T02:53:57;21.90;58.40
71563;DHT22;59391;52.504;13.438;2023-09-18T02:56:23;21.90;58.40
71563;DHT22;59391;52.504;13.438;2023-09-18T02:58:48;21.80;58.50
71563;DHT22;59391;52.504;13.438;2023-09-18T03:01:14;21.80;58.50
71563;DHT22;59391;52.504;13.438;2023-09-18T03:03:40;21.80;58.50
71563;DHT22;59391;52.504;13.438;2023-09-18T03:06:07;21.80;58.60
71563;DHT22;59391;52.504;13.438;2023-09-18T03:08:33;21.80;58.80
71563;DHT22;59391;52.504;13.438;2023-09-18T03:10:59;21.80;58.90
71563;DHT22;59391;52.504;13.438;2023-09-18T03:13:26;21.70;58.90
71563;DHT22;59391;52.504;13.438;2023-09-18T03:15:53;21.70;59.10
71563;DHT22;59391;52.504;13.438;2023-09-18T03:18:19;21.70;59.10
71563;DHT22;59391;52.504;13.438;2023-09-18T03:20:44;21.70;59.20
71563;DHT22;59391;52.504;13.438;2023-09-18T03:23:10;21.70;59.20
71563;DHT22;59391;52.504;13.438;2023-09-18T03:25:36;21.60;59.20
71563;DHT22;59391;52.504;13.438;2023-09-18T03:28:05;21.60;59.20
71563;DHT22;59391;52.504;13.438;2023-09-18T03:30:31;21.60;59.20
71563;DHT22;59391;52.504;13.438;2023-09-18T03:32:56;21.60;59.30
71563;DHT22;59391;52.504;13.438;2023-09-18T03:35:22;21.60;59.30
71563;DHT22;59391;52.504;13.438;2023-09-18T03:37:49;21.60;59.30
71563;DHT22;59391;52.504;13.438;2023-09-18T03:40:18;21.60;59.40
71563;DHT22;59391;52.504;13.438;2023-09-18T03:42:44;21.60;59.40
71563;DHT22;59391;52.504;13.438;2023-09-18T03:45:11;21.50;59.50
71563;DHT22;59391;52.504;13.438;2023-09-18T03:47:38;21.50;59.50
71563;DHT22;59391;52.504;13.438;2023-09-18T03:50:06;21.50;59.60
71563;DHT22;59391;52.504;13.438;2023-09-18T03:52:36;21.50;59.70
71563;DHT22;59391;52.504;13.438;2023-09-18T03:55:04;21.50;59.70
71563;DHT22;59391;52.504;13.438;2023-09-18T03:57:30;21.50;59.80
71563;DHT22;59391;52.504;13.438;2023-09-18T03:59:56;21.40;59.90
71563;DHT22;59391;52.504;13.438;2023-09-18T04:02:24;21.40;60.00
71563;DHT22;59391;52.504;13.438;2023-09-18T04:04:51;21.40;60.20
71563;DHT22;59391;52.504;13.438;2023-09-18T04:07:18;21.40;60.10
71563;DHT22;59391;52.504;13.438;2023-09-18T04:09:45;21.40;60.20
71563;DHT22;59391;52.504;13.438;2023-09-18T04:12:11;21.40;60.20
71563;DHT22;59391;52.504;13.438;2023-09-18T04:14:38;21.40;60.30
71563;DHT22;59391;52.504;13.438;2023-09-18T04:17:04;21.40;60.40
71563;DHT22;59391;52.504;13.438;2023-09-18T04:19:29;21.30;60.40
71563;DHT22;59391;52.504;13.438;2023-09-18T04:21:56;21.30;60.40
71563;DHT22;59391;52.504;13.438;2023-09-18T04:24:22;21.30;60.50
71563;DHT22;59391;52.504;13.438;2023-09-18T04:26:48;21.30;60.50
71563;DHT22;59391;52.504;13.438;2023-09-18T04:29:16;21.30;60.50
71563;DHT22;59391;52.504;13.438;2023-09-18T04:31:42;21.30;60.50
71563;DHT22;59391;52.504;13.438;2023-09-18T04:34:07;21.30;60.60
71563;DHT22;59391;52.504;13.438;2023-09-18T04:36:33;21.30;60.60
71563;DHT22;59391;52.504;13.438;2023-09-18T04:38:59;21.30;60.60
71563;DHT22;59391;52.504;13.438;2023-09-18T04:41:24;21.20;60.70
71563;DHT22;59391;52.504;13.438;2023-09-18T04:43:50;21.20;60.60
71563;DHT22;59391;52.504;13.438;2023-09-18T04:46:16;21.20;60.70
71563;DHT22;59391;52.504;13.438;2023-09-18T04:48:42;21.20;60.80
71563;DHT22;59391;52.504;13.438;2023-09-18T04:51:07;21.20;60.80
71563;DHT22;59391;52.504;13.438;2023-09-18T04:53:33;21.20;60.90
71563;DHT22;59391;52.504;13.438;2023-09-18T04:55:59;21.20;60.90
71563;DHT22;59391;52.504;13.438;2023-09-18T04:58:26;21.20;61.00
71563;DHT22;59391;52.504;13.438;2023-09-18T05:00:58;21.20;61.00
71563;DHT22;59391;52.504;13.438;2023-09-18T05:03:24;21.20;61.10
71563;DHT22;59391;52.504;13.438;2023-09-18T05:05:52;21.20;61.00
71563;DHT22;59391;52.504;13.438;2023-09-18T05:08:18;21.20;61.00
71563;DHT22;59391;52.504;13.438;2023-09-18T05:10:45;21.20;61.00
71563;DHT22;59391;52.504;13.438;2023-09-18T05:13:11;21.20;61.10
71563;DHT22;59391;52.504;13.438;2023-09-18T05:15:37;21.20;61.10
71563;DHT22;59391;52.504;13.438;2023-09-18T05:18:03;21.10;61.10
71563;DHT22;59391;52.504;13.438;2023-09-18T05:20:30;21.20;61.20
71563;DHT22;59391;52.504;13.438;2023-09-18T05:22:57;21.20;61.30
71563;DHT22;59391;52.504;13.438;2023-09-18T05:25:27;21.20;61.40
71563;DHT22;59391;52.504;13.438;2023-09-18T05:27:58;21.20;61.40
71563;DHT22;59391;52.504;13.438;2023-09-18T05:30:30;21.20;61.40
71563;DHT22;59391;52.504;13.438;2023-09-18T05:32:58;21.20;61.50
71563;DHT22;59391;52.504;13.438;2023-09-18T05:35:33;21.20;61.40
71563;DHT22;59391;52.504;13.438;2023-09-18T05:38:08;21.20;61.40
71563;DHT22;59391;52.504;13.438;2023-09-18T05:40:39;21.20;61.40
71563;DHT22;59391;52.504;13.438;2023-09-18T05:43:04;21.20;61.40
71563;DHT22;59391;52.504;13.438;2023-09-18T05:45:31;21.20;61.40
71563;DHT22;59391;52.504;13.438;2023-09-18T05:47:58;21.20;61.40
71563;DHT22;59391;52.504;13.438;2023-09-18T05:50:29;21.30;61.40
71563;DHT22;59391;52.504;13.438;2023-09-18T05:52:59;21.30;61.40
71563;DHT22;59391;52.504;13.438;2023-09-18T05:55:26;21.30;61.40
71563;DHT22;59391;52.504;13.438;2023-09-18T05:57:53;21.30;61.30
71563;DHT22;59391;52.504;13.438;2023-09-18T06:00:19;21.30;61.30
71563;DHT22;59391;52.504;13.438;2023-09-18T06:02:45;21.40;61.30
71563;DHT22;59391;52.504;13.438;2023-09-18T06:05:11;21.40;61.20
71563;DHT22;59391;52.504;13.438;2023-09-18T06:07:37;21.40;61.30
71563;DHT22;59391;52.504;13.438;2023-09-18T06:10:03;21.40;61.30
71563;DHT22;59391;52.504;13.438;2023-09-18T06:12:29;21.50;61.30
71563;DHT22;59391;52.504;13.438;2023-09-18T06:14:55;21.50;61.20
71563;DHT22;59391;52.504;13.438;2023-09-18T06:17:21;21.50;61.20
71563;DHT22;59391;52.504;13.438;2023-09-18T06:19:47;21.50;61.20
71563;DHT22;59391;52.504;13.438;2023-09-18T06:22:13;21.50;61.00
71563;DHT22;59391;52.504;13.438;2023-09-18T06:24:39;21.60;61.10
71563;DHT22;59391;52.504;13.438;2023-09-18T06:27:05;21.60;61.00
71563;DHT22;59391;52.504;13.438;2023-09-18T06:29:35;21.60;60.90
71563;DHT22;59391;52.504;13.438;2023-09-18T06:32:04;21.60;60.90
71563;DHT22;59391;52.504;13.438;2023-09-18T06:34:31;21.70;60.90
71563;DHT22;59391;52.504;13.438;2023-09-18T06:36:57;21.70;60.80
71563;DHT22;59391;52.504;13.438;2023-09-18T06:39:22;21.70;60.80
71563;DHT22;59391;52.504;13.438;2023-09-18T06:41:49;21.80;60.80
71563;DHT22;59391;52.504;13.438;2023-09-18T06:44:15;21.80;60.90
71563;DHT22;59391;52.504;13.438;2023-09-18T06:46:40;21.80;60.90
71563;DHT22;59391;52.504;13.438;2023-09-18T06:49:06;21.80;60.80
71563;DHT22;59391;52.504;13.438;2023-09-18T06:51:35;21.90;60.60
71563;DHT22;59391;52.504;13.438;2023-09-18T06:54:00;21.90;60.70
71563;DHT22;59391;52.504;13.438;2023-09-18T06:56:28;22.00;60.70
71563;DHT22;59391;52.504;13.438;2023-09-18T06:58:54;22.00;60.60
71563;DHT22;59391;52.504;13.438;2023-09-18T07:01:20;22.00;60.60
71563;DHT22;59391;52.504;13.438;2023-09-18T07:03:48;22.10;60.50
71563;DHT22;59391;52.504;13.438;2023-09-18T07:06:14;22.20;60.50
71563;DHT22;59391;52.504;13.438;2023-09-18T07:08:47;22.20;60.40
71563;DHT22;59391;52.504;13.438;2023-09-18T07:11:15;22.20;60.40
71563;DHT22;59391;52.504;13.438;2023-09-18T07:13:41;22.30;60.20
71563;DHT22;59391;52.504;13.438;2023-09-18T07:16:08;22.40;60.20
71563;DHT22;59391;52.504;13.438;2023-09-18T07:18:35;22.40;60.00
71563;DHT22;59391;52.504;13.438;2023-09-18T07:21:01;22.50;59.90
71563;DHT22;59391;52.504;13.438;2023-09-18T07:23:27;22.60;59.80
71563;DHT22;59391;52.504;13.438;2023-09-18T07:25:53;22.60;59.60
71563;DHT22;59391;52.504;13.438;2023-09-18T07:28:18;22.70;59.50
71563;DHT22;59391;52.504;13.438;2023-09-18T07:30:45;22.80;59.40
71563;DHT22;59391;52.504;13.438;2023-09-18T07:33:13;22.80;59.20
71563;DHT22;59391;52.504;13.438;2023-09-18T07:35:41;22.90;59.10
71563;DHT22;59391;52.504;13.438;2023-09-18T07:38:07;23.00;58.90
71563;DHT22;59391;52.504;13.438;2023-09-18T07:40:33;23.00;58.90
71563;DHT22;59391;52.504;13.438;2023-09-18T07:42:58;23.10;58.80
71563;DHT22;59391;52.504;13.438;2023-09-18T07:45:24;23.20;58.70
71563;DHT22;59391;52.504;13.438;2023-09-18T07:47:50;23.20;58.60
71563;DHT22;59391;52.504;13.438;2023-09-18T07:50:16;23.40;58.40
71563;DHT22;59391;52.504;13.438;2023-09-18T07:52:42;23.50;57.70
71563;DHT22;59391;52.504;13.438;2023-09-18T07:55:08;23.60;57.40
71563;DHT22;59391;52.504;13.438;2023-09-18T07:57:35;23.70;57.10
71563;DHT22;59391;52.504;13.438;2023-09-18T08:00:01;23.80;56.40
71563;DHT22;59391;52.504;13.438;2023-09-18T08:02:32;23.90;56.40
71563;DHT22;59391;52.504;13.438;2023-09-18T08:05:00;24.00;55.80
71563;DHT22;59391;52.504;13.438;2023-09-18T08:07:27;24.10;55.60
71563;DHT22;59391;52.504;13.438;2023-09-18T08:09:53;24.20;55.30
71563;DHT22;59391;52.504;13.438;2023-09-18T08:12:19;24.40;55.40
71563;DHT22;59391;52.504;13.438;2023-09-18T08:14:45;24.50;55.30
71563;DHT22;59391;52.504;13.438;2023-09-18T08:17:12;24.70;54.90
71563;DHT22;59391;52.504;13.438;2023-09-18T08:19:37;24.90;55.00
71563;DHT22;59391;52.504;13.438;2023-09-18T08:22:04;25.20;54.60
71563;DHT22;59391;52.504;13.438;2023-09-18T08:24:30;25.50;54.00
71563;DHT22;59391;52.504;13.438;2023-09-18T08:26:56;25.80;53.00
71563;DHT22;59391;52.504;13.438;2023-09-18T08:29:22;26.20;52.60
71563;DHT22;59391;52.504;13.438;2023-09-18T08:31:48;26.60;51.60
71563;DHT22;59391;52.504;13.438;2023-09-18T08:34:15;27.00;49.80
71563;DHT22;59391;52.504;13.438;2023-09-18T08:36:41;27.40;49.50
71563;DHT22;59391;52.504;13.438;2023-09-18T08:39:08;27.80;49.00
71563;DHT22;59391;52.504;13.438;2023-09-18T08:41:38;28.10;47.60
71563;DHT22;59391;52.504;13.438;2023-09-18T08:44:07;28.50;47.10
71563;DHT22;59391;52.504;13.438;2023-09-18T08:46:36;28.80;46.40
71563;DHT22;59391;52.504;13.438;2023-09-18T08:49:04;29.20;45.50
71563;DHT22;59391;52.504;13.438;2023-09-18T08:51:32;29.50;43.80
71563;DHT22;59391;52.504;13.438;2023-09-18T08:53:59;29.80;42.90
71563;DHT22;59391;52.504;13.438;2023-09-18T08:56:26;30.10;42.70
71563;DHT22;59391;52.504;13.438;2023-09-18T08:58:53;30.30;41.90
71563;DHT22;59391;52.504;13.438;2023-09-18T09:01:19;30.50;41.00
71563;DHT22;59391;52.504;13.438;2023-09-18T09:03:44;30.60;41.10
71563;DHT22;59391;52.504;13.438;2023-09-18T09:06:11;30.60;41.50
71563;DHT22;59391;52.504;13.438;2023-09-18T09:08:38;30.70;41.40
71563;DHT22;59391;52.504;13.438;2023-09-18T09:11:04;30.70;40.90
71563;DHT22;59391;52.504;13.438;2023-09-18T09:13:30;30.70;41.20
71563;DHT22;59391;52.504;13.438;2023-09-18T09:15:57;30.80;41.40
71563;DHT22;59391;52.504;13.438;2023-09-18T09:18:29;30.80;41.00
71563;DHT22;59391;52.504;13.438;2023-09-18T09:23:41;30.90;40.50
71563;DHT22;59391;52.504;13.438;2023-09-18T09:26:16;31.00;40.70
71563;DHT22;59391;52.504;13.438;2023-09-18T09:28:43;31.10;40.70
71563;DHT22;59391;52.504;13.438;2023-09-18T09:31:10;31.20;40.70
71563;DHT22;59391;52.504;13.438;2023-09-18T09:33:37;31.30;40.80
71563;DHT22;59391;52.504;13.438;2023-09-18T09:36:06;31.30;40.50
71563;DHT22;59391;52.504;13.438;2023-09-18T09:38:33;31.40;40.60
71563;DHT22;59391;52.504;13.438;2023-09-18T09:41:01;31.40;40.50
71563;DHT22;59391;52.504;13.438;2023-09-18T09:43:28;31.50;40.40
71563;DHT22;59391;52.504;13.438;2023-09-18T09:46:00;31.50;40.20
71563;DHT22;59391;52.504;13.438;2023-09-18T09:48:27;31.50;40.00
71563;DHT22;59391;52.504;13.438;2023-09-18T09:50:58;31.50;40.30
71563;DHT22;59391;52.504;13.438;2023-09-18T09:53:47;31.40;39.90
71563;DHT22;59391;52.504;13.438;2023-09-18T09:56:14;31.30;39.30
71563;DHT22;59391;52.504;13.438;2023-09-18T09:58:40;31.30;39.60
71563;DHT22;59391;52.504;13.438;2023-09-18T10:01:12;31.10;39.30
71563;DHT22;59391;52.504;13.438;2023-09-18T10:03:44;31.00;39.30
71563;DHT22;59391;52.504;13.438;2023-09-18T10:06:11;30.80;40.20
71563;DHT22;59391;52.504;13.438;2023-09-18T10:08:39;30.70;40.00
71563;DHT22;59391;52.504;13.438;2023-09-18T10:11:07;30.60;40.40
71563;DHT22;59391;52.504;13.438;2023-09-18T10:13:59;30.50;40.90
71563;DHT22;59391;52.504;13.438;2023-09-18T10:16:30;30.40;41.30
71563;DHT22;59391;52.504;13.438;2023-09-18T10:21:57;30.20;41.90
71563;DHT22;59391;52.504;13.438;2023-09-18T10:24:34;30.20;41.90
71563;DHT22;59391;52.504;13.438;2023-09-18T10:27:03;30.10;41.60
71563;DHT22;59391;52.504;13.438;2023-09-18T10:29:33;30.00;41.70
71563;DHT22;59391;52.504;13.438;2023-09-18T10:32:06;30.00;41.60
71563;DHT22;59391;52.504;13.438;2023-09-18T10:34:33;29.90;41.80
71563;DHT22;59391;52.504;13.438;2023-09-18T10:37:02;29.80;41.40
71563;DHT22;59391;52.504;13.438;2023-09-18T10:39:35;29.80;41.40
71563;DHT22;59391;52.504;13.438;2023-09-18T10:42:03;29.70;41.40
71563;DHT22;59391;52.504;13.438;2023-09-18T10:44:30;29.70;41.60
71563;DHT22;59391;52.504;13.438;2023-09-18T10:47:03;29.60;41.30
71563;DHT22;59391;52.504;13.438;2023-09-18T10:49:31;29.60;41.10
71563;DHT22;59391;52.504;13.438;2023-09-18T10:51:57;29.60;40.80
71563;DHT22;59391;52.504;13.438;2023-09-18T10:54:25;29.60;40.80
71563;DHT22;59391;52.504;13.438;2023-09-18T10:56:53;29.50;40.70
71563;DHT22;59391;52.504;13.438;2023-09-18T10:59:21;29.50;40.70
71563;DHT22;59391;52.504;13.438;2023-09-18T11:01:47;29.50;40.80
71563;DHT22;59391;52.504;13.438;2023-09-18T11:04:18;29.50;40.80
71563;DHT22;59391;52.504;13.438;2023-09-18T11:07:43;29.40;41.00
71563;DHT22;59391;52.504;13.438;2023-09-18T11:10:26;29.40;41.20
71563;DHT22;59391;52.504;13.438;2023-09-18T11:12:52;29.40;41.50
71563;DHT22;59391;52.504;13.438;2023-09-18T11:15:31;29.30;41.40
71563;DHT22;59391;52.504;13.438;2023-09-18T11:18:02;29.30;41.60
71563;DHT22;59391;52.504;13.438;2023-09-18T11:20:31;29.20;41.80
71563;DHT22;59391;52.504;13.438;2023-09-18T11:22:59;29.10;41.90
71563;DHT22;59391;52.504;13.438;2023-09-18T11:25:39;29.10;42.10
71563;DHT22;59391;52.504;13.438;2023-09-18T11:28:22;29.00;42.40
71563;DHT22;59391;52.504;13.438;2023-09-18T11:30:54;29.00;42.50
71563;DHT22;59391;52.504;13.438;2023-09-18T11:33:35;29.00;42.50
71563;DHT22;59391;52.504;13.438;2023-09-18T11:36:08;28.90;42.80
71563;DHT22;59391;52.504;13.438;2023-09-18T11:38:57;28.90;42.90
71563;DHT22;59391;52.504;13.438;2023-09-18T11:41:30;28.90;43.00
71563;DHT22;59391;52.504;13.438;2023-09-18T11:46:53;28.90;43.20
71563;DHT22;59391;52.504;13.438;2023-09-18T11:49:24;28.90;43.00
71563;DHT22;59391;52.504;13.438;2023-09-18T11:51:52;28.90;43.10
71563;DHT22;59391;52.504;13.438;2023-09-18T11:54:18;28.80;43.20
71563;DHT22;59391;52.504;13.438;2023-09-18T11:56:44;28.80;43.40
71563;DHT22;59391;52.504;13.438;2023-09-18T11:59:10;28.80;43.30
71563;DHT22;59391;52.504;13.438;2023-09-18T12:01:36;28.80;43.30
71563;DHT22;59391;52.504;13.438;2023-09-18T12:04:05;28.70;43.60
71563;DHT22;59391;52.504;13.438;2023-09-18T12:06:35;28.70;43.60
71563;DHT22;59391;52.504;13.438;2023-09-18T12:09:02;28.70;43.80
71563;DHT22;59391;52.504;13.438;2023-09-18T12:11:29;28.70;43.80
71563;DHT22;59391;52.504;13.438;2023-09-18T12:13:55;28.70;43.80
71563;DHT22;59391;52.504;13.438;2023-09-18T12:16:21;28.70;43.80
71563;DHT22;59391;52.504;13.438;2023-09-18T12:18:48;28.70;44.00
71563;DHT22;59391;52.504;13.438;2023-09-18T12:21:15;28.80;43.70
71563;DHT22;59391;52.504;13.438;2023-09-18T12:23:44;28.80;43.90
71563;DHT22;59391;52.504;13.438;2023-09-18T12:26:12;28.80;43.60
71563;DHT22;59391;52.504;13.438;2023-09-18T12:28:40;28.90;43.40
71563;DHT22;59391;52.504;13.438;2023-09-18T12:31:10;29.00;43.30
71563;DHT22;59391;52.504;13.438;2023-09-18T12:33:40;29.00;43.20
71563;DHT22;59391;52.504;13.438;2023-09-18T12:36:09;29.00;43.10
71563;DHT22;59391;52.504;13.438;2023-09-18T12:38:36;29.10;43.10
71563;DHT22;59391;52.504;13.438;2023-09-18T12:41:04;29.10;42.90
71563;DHT22;59391;52.504;13.438;2023-09-18T12:43:36;29.20;43.00
71563;DHT22;59391;52.504;13.438;2023-09-18T12:46:05;29.10;42.40
71563;DHT22;59391;52.504;13.438;2023-09-18T12:48:32;29.10;42.70
71563;DHT22;59391;52.504;13.438;2023-09-18T12:51:03;29.10;42.80
71563;DHT22;59391;52.504;13.438;2023-09-18T12:53:29;29.10;42.90
71563;DHT22;59391;52.504;13.438;2023-09-18T12:56:07;29.10;43.00
71563;DHT22;59391;52.504;13.438;2023-09-18T12:58:36;29.00;42.80
71563;DHT22;59391;52.504;13.438;2023-09-18T13:01:07;29.00;42.60
71563;DHT22;59391;52.504;13.438;2023-09-18T13:03:43;29.00;42.90
71563;DHT22;59391;52.504;13.438;2023-09-18T13:06:20;28.90;42.70
71563;DHT22;59391;52.504;13.438;2023-09-18T13:08:46;28.90;42.60
71563;DHT22;59391;52.504;13.438;2023-09-18T13:11:13;28.80;42.90
71563;DHT22;59391;52.504;13.438;2023-09-18T13:13:42;28.80;43.10
71563;DHT22;59391;52.504;13.438;2023-09-18T13:16:09;28.70;43.30
71563;DHT22;59391;52.504;13.438;2023-09-18T13:18:35;28.70;43.40
71563;DHT22;59391;52.504;13.438;2023-09-18T13:21:12;28.60;43.90
71563;DHT22;59391;52.504;13.438;2023-09-18T13:23:39;28.50;43.70
71563;DHT22;59391;52.504;13.438;2023-09-18T13:26:06;28.50;43.90
71563;DHT22;59391;52.504;13.438;2023-09-18T13:28:36;28.40;44.20
71563;DHT22;59391;52.504;13.438;2023-09-18T13:31:03;28.40;44.50
71563;DHT22;59391;52.504;13.438;2023-09-18T13:33:37;28.30;44.30
71563;DHT22;59391;52.504;13.438;2023-09-18T13:36:04;28.30;44.50
71563;DHT22;59391;52.504;13.438;2023-09-18T13:38:30;28.30;44.50
71563;DHT22;59391;52.504;13.438;2023-09-18T13:40:55;28.20;45.00
71563;DHT22;59391;52.504;13.438;2023-09-18T13:43:21;28.20;46.40
71563;DHT22;59391;52.504;13.438;2023-09-18T13:45:49;28.10;46.90
71563;DHT22;59391;52.504;13.438;2023-09-18T13:48:18;28.00;47.60
71563;DHT22;59391;52.504;13.438;2023-09-18T13:50:44;27.90;46.90
71563;DHT22;59391;52.504;13.438;2023-09-18T13:53:11;27.80;48.30
71563;DHT22;59391;52.504;13.438;2023-09-18T13:55:37;27.70;49.30
71563;DHT22;59391;52.504;13.438;2023-09-18T13:58:03;27.60;49.40
71563;DHT22;59391;52.504;13.438;2023-09-18T14:00:29;27.50;49.70
71563;DHT22;59391;52.504;13.438;2023-09-18T14:02:54;27.40;49.70
71563;DHT22;59391;52.504;13.438;2023-09-18T14:05:20;27.40;49.50
71563;DHT22;59391;52.504;13.438;2023-09-18T14:07:46;27.30;48.90
71563;DHT22;59391;52.504;13.438;2023-09-18T14:10:13;27.30;48.80
71563;DHT22;59391;52.504;13.438;2023-09-18T14:12:41;27.30;48.90
71563;DHT22;59391;52.504;13.438;2023-09-18T14:15:08;27.30;49.00
71563;DHT22;59391;52.504;13.438;2023-09-18T14:17:35;27.30;49.30
71563;DHT22;59391;52.504;13.438;2023-09-18T14:20:03;27.30;49.80
71563;DHT22;59391;52.504;13.438;2023-09-18T14:22:32;27.20;50.10
71563;DHT22;59391;52.504;13.438;2023-09-18T14:25:01;27.20;50.10
71563;DHT22;59391;52.504;13.438;2023-09-18T14:27:30;27.30;50.00
71563;DHT22;59391;52.504;13.438;2023-09-18T14:30:00;27.20;50.10
71563;DHT22;59391;52.504;13.438;2023-09-18T14:32:29;27.30;49.80
71563;DHT22;59391;52.504;13.438;2023-09-18T14:34:54;27.30;49.70
71563;DHT22;59391;52.504;13.438;2023-09-18T14:37:20;27.30;49.50
71563;DHT22;59391;52.504;13.438;2023-09-18T14:39:46;27.30;49.40
71563;DHT22;59391;52.504;13.438;2023-09-18T14:42:12;27.30;49.40
71563;DHT22;59391;52.504;13.438;2023-09-18T14:44:37;27.20;49.30
71563;DHT22;59391;52.504;13.438;2023-09-18T14:47:10;27.20;49.00
71563;DHT22;59391;52.504;13.438;2023-09-18T14:49:36;27.20;48.90
71563;DHT22;59391;52.504;13.438;2023-09-18T14:52:02;27.10;48.40
71563;DHT22;59391;52.504;13.438;2023-09-18T14:54:28;27.10;48.50
71563;DHT22;59391;52.504;13.438;2023-09-18T14:56:54;27.10;48.20
71563;DHT22;59391;52.504;13.438;2023-09-18T14:59:20;27.10;48.00
71563;DHT22;59391;52.504;13.438;2023-09-18T15:01:45;27.10;47.60
71563;DHT22;59391;52.504;13.438;2023-09-18T15:04:13;27.00;47.90
71563;DHT22;59391;52.504;13.438;2023-09-18T15:06:38;27.00;47.60
71563;DHT22;59391;52.504;13.438;2023-09-18T15:09:04;27.00;47.40
71563;DHT22;59391;52.504;13.438;2023-09-18T15:11:33;27.00;47.30
71563;DHT22;59391;52.504;13.438;2023-09-18T15:14:01;27.00;47.10
71563;DHT22;59391;52.504;13.438;2023-09-18T15:16:27;27.00;46.80
71563;DHT22;59391;52.504;13.438;2023-09-18T15:18:55;27.00;47.00
71563;DHT22;59391;52.504;13.438;2023-09-18T15:21:21;27.00;47.30
71563;DHT22;59391;52.504;13.438;2023-09-18T15:23:47;27.00;47.00
71563;DHT22;59391;52.504;13.438;2023-09-18T15:26:15;27.00;47.20
71563;DHT22;59391;52.504;13.438;2023-09-18T15:28:41;27.00;46.90